Time;durP1;ratioP1;P1;durP2;ratioP2;P2;SDS_P1;SDS_P2;PMS_P1;PMS_P2;Temp;Humidity;BMP_temperature;BMP_pressure;BME280_temperature;BME280_humidity;BME280_pressure;Samples;Min_cycle;Max_cycle;Signal;HPM_P1;HPM_P2
2022/03/04 11:00:06;;;;;;;12.20;2.90;;;;;;;;;;5093197;28;20764;-68
2022/03/04 11:02:46;;;;;;;13.30;6.00;;;;;;;;;;5091802;28;20059;-69
2022/03/04 11:05:14;;;;;;;80.43;7.70;;;;;;;;;;5093033;28;20020;-69
2022/03/04 11:07:42;;;;;;;25.40;5.43;;;;;;;;;;5092923;28;20034;-69
2022/03/04 11:10:10;;;;;;;13.82;5.85;;;;;;;;;;5093009;28;20024;-68
2022/03/04 11:12:37;;;;;;;8.63;3.53;;;;;;;;;;5092793;28;20028;-68
2022/03/04 11:15:05;;;;;;;7.28;3.28;;;;;;;;;;5092882;28;20086;-68
2022/03/04 11:17:33;;;;;;;14.90;5.15;;;;;;;;;;5091508;28;20051;-68
2022/03/04 11:20:00;;;;;;;7.40;2.40;;;;;;;;;;5092687;28;20329;-69
2022/03/04 11:22:27;;;;;;;10.68;2.63;;;;;;;;;;5091619;28;20076;-68
2022/03/04 11:25:01;;;;;;;8.07;2.10;;;;;;;;;;5092387;28;20036;-68
2022/03/04 11:27:29;;;;;;;11.18;2.80;;;;;;;;;;5092223;28;20421;-69
2022/03/04 11:30:00;;;;;;;11.68;3.45;;;;;;;;;;5092749;28;20028;-68
2022/03/04 11:32:30;;;;;;;24.88;6.07;;;;;;;;;;5092504;28;20035;-69
2022/03/04 11:34:58;;;;;;;22.27;7.47;;;;;;;;;;5092620;28;20025;-69
2022/03/04 11:37:26;;;;;;;19.13;5.72;;;;;;;;;;5091109;28;20024;-69
2022/03/04 11:40:33;;;;;;;14.27;5.00;;;;;;;;;;5092329;28;20333;-70
2022/03/04 11:42:59;;;;;;;12.55;3.85;;;;;;;;;;5092422;28;20020;-69
2022/03/04 11:45:34;;;;;;;19.20;5.95;;;;;;;;;;5092556;28;20017;-69
2022/03/04 11:48:08;;;;;;;21.38;8.65;;;;;;;;;;5092431;28;20035;-70
2022/03/04 11:50:37;;;;;;;19.85;6.63;;;;;;;;;;5092379;28;20052;-70
2022/03/04 11:53:20;;;;;;;35.45;15.57;;;;;;;;;;5091182;28;20051;-69
2022/03/04 11:56:06;;;;;;;40.35;21.90;;;;;;;;;;5092307;28;20094;-71
2022/03/04 11:58:52;;;;;;;34.38;15.98;;;;;;;;;;5090700;28;20048;-69
2022/03/04 12:01:18;;;;;;;26.35;11.85;;;;;;;;;;5073084;28;20039;-69
2022/03/04 12:04:04;;;;;;;25.35;13.68;;;;;;;;;;5073074;28;20032;-69
2022/03/04 12:06:32;;;;;;;41.92;23.75;;;;;;;;;;5090213;28;20032;-71
2022/03/04 12:09:20;;;;;;;33.88;18.02;;;;;;;;;;5072867;28;20457;-70
2022/03/04 12:12:06;;;;;;;33.33;13.52;;;;;;;;;;5036144;28;20033;-70
2022/03/04 12:14:35;;;;;;;27.95;13.35;;;;;;;;;;5019874;28;20045;-70
2022/03/04 12:17:02;;;;;;;46.63;8.65;;;;;;;;;;5019748;28;20038;-70
2022/03/04 12:19:30;;;;;;;51.75;8.43;;;;;;;;;;5036322;28;20057;-70
2022/03/04 12:21:58;;;;;;;30.00;7.57;;;;;;;;;;5036242;28;20457;-70
2022/03/04 12:24:33;;;;;;;75.47;29.88;;;;;;;;;;5036416;28;20037;-70
2022/03/04 12:27:01;;;;;;;83.60;34.05;;;;;;;;;;5019557;28;20041;-70
2022/03/04 12:29:46;;;;;;;84.65;33.65;;;;;;;;;;5019052;28;20037;-71
2022/03/04 12:32:14;;;;;;;148.52;72.80;;;;;;;;;;5045382;28;20151;-69
2022/03/04 12:34:52;;;;;;;169.20;88.47;;;;;;;;;;5055672;28;20033;-70
2022/03/04 12:37:19;;;;;;;107.45;49.78;;;;;;;;;;5055951;28;20029;-67
2022/03/04 12:39:51;;;;;;;51.03;18.83;;;;;;;;;;5055339;28;20333;-67
2022/03/04 12:42:19;;;;;;;47.38;15.77;;;;;;;;;;5055645;28;20029;-67
2022/03/04 12:44:46;;;;;;;54.35;25.08;;;;;;;;;;5055849;28;20100;-68
2022/03/04 12:47:15;;;;;;;54.65;24.00;;;;;;;;;;5055769;28;20028;-67
2022/03/04 12:49:43;;;;;;;62.63;21.75;;;;;;;;;;5070531;28;20056;-68
2022/03/04 12:52:11;;;;;;;76.65;22.77;;;;;;;;;;5076756;28;20032;-67
2022/03/04 12:54:38;;;;;;;70.63;25.08;;;;;;;;;;5077714;28;20099;-67
2022/03/04 12:57:07;;;;;;;58.30;25.38;;;;;;;;;;5077667;28;20127;-67
2022/03/04 12:59:45;;;;;;;70.50;28.17;;;;;;;;;;5076223;28;20055;-69
2022/03/04 13:02:12;;;;;;;72.50;28.33;;;;;;;;;;5077605;28;20020;-68
2022/03/04 13:04:41;;;;;;;88.60;40.22;;;;;;;;;;5076249;28;20039;-69
2022/03/04 13:07:08;;;;;;;81.60;33.17;;;;;;;;;;5076271;28;20024;-67
2022/03/04 13:09:36;;;;;;;69.47;29.65;;;;;;;;;;5077331;28;20024;-68
2022/03/04 13:12:10;;;;;;;74.85;31.05;;;;;;;;;;5077292;28;20368;-67
2022/03/04 13:14:37;;;;;;;63.78;27.00;;;;;;;;;;5077330;28;20052;-67
2022/03/04 13:17:14;;;;;;;62.53;26.73;;;;;;;;;;5076164;28;20430;-67
2022/03/04 13:19:43;;;;;;;43.08;18.00;;;;;;;;;;5077088;28;20056;-68
2022/03/04 13:22:17;;;;;;;29.48;12.85;;;;;;;;;;5076142;28;20103;-69
2022/03/04 13:24:54;;;;;;;30.85;11.55;;;;;;;;;;5076059;28;20028;-68
2022/03/04 13:27:23;;;;;;;26.45;11.05;;;;;;;;;;5077131;28;20119;-67
2022/03/04 13:29:59;;;;;;;36.78;11.57;;;;;;;;;;5076829;28;20372;-67
2022/03/04 13:32:27;;;;;;;33.55;9.77;;;;;;;;;;5076687;28;20021;-66
2022/03/04 13:35:01;;;;;;;40.55;15.77;;;;;;;;;;5076571;28;20021;-67
2022/03/04 13:37:47;;;;;;;52.97;19.08;;;;;;;;;;5076585;28;20486;-66
2022/03/04 13:40:19;;;;;;;42.05;16.52;;;;;;;;;;5075628;28;20020;-67
2022/03/04 13:42:52;;;;;;;36.38;13.95;;;;;;;;;;5076451;28;20016;-68
2022/03/04 13:45:39;;;;;;;36.00;13.18;;;;;;;;;;5076427;28;20024;-68
2022/03/04 13:48:10;;;;;;;29.70;9.82;;;;;;;;;;5075337;28;20020;-66
2022/03/04 13:50:38;;;;;;;67.30;19.80;;;;;;;;;;5075298;28;20375;-68
2022/03/04 13:53:09;;;;;;;32.85;11.80;;;;;;;;;;5076463;28;20028;-66
2022/03/04 13:55:52;;;;;;;72.93;12.10;;;;;;;;;;5076506;28;20042;-67
2022/03/04 13:58:26;;;;;;;28.02;11.57;;;;;;;;;;5075965;28;20048;-70
2022/03/04 14:00:55;;;;;;;27.33;10.05;;;;;;;;;;5076176;28;20115;-68
2022/03/04 14:03:26;;;;;;;34.35;10.30;;;;;;;;;;5075101;28;20330;-68
2022/03/04 14:06:10;;;;;;;37.55;10.45;;;;;;;;;;5076445;28;20013;-69
2022/03/04 14:08:38;;;;;;;39.85;15.02;;;;;;;;;;5076396;28;20095;-69
2022/03/04 14:11:07;;;;;;;40.58;16.88;;;;;;;;;;5075250;28;20412;-68
2022/03/04 14:13:36;;;;;;;36.15;13.65;;;;;;;;;;5075255;28;20101;-69
2022/03/04 14:16:05;;;;;;;25.10;10.77;;;;;;;;;;5075922;28;20070;-70
2022/03/04 14:18:32;;;;;;;32.22;12.27;;;;;;;;;;5075965;28;20032;-70
2022/03/04 14:21:03;;;;;;;36.40;14.77;;;;;;;;;;5076064;28;20317;-69
2022/03/04 14:23:38;;;;;;;36.20;13.20;;;;;;;;;;5074693;28;20025;-68
2022/03/04 14:26:06;;;;;;;44.85;13.00;;;;;;;;;;5075704;28;20108;-68
2022/03/04 14:28:34;;;;;;;34.60;12.15;;;;;;;;;;5075919;28;20020;-69
2022/03/04 14:31:02;;;;;;;25.63;11.15;;;;;;;;;;5076103;28;20035;-68
2022/03/04 14:33:29;;;;;;;22.30;8.57;;;;;;;;;;5075784;28;20027;-68
2022/03/04 14:35:57;;;;;;;29.55;10.02;;;;;;;;;;5075112;28;20082;-68
2022/03/04 14:38:25;;;;;;;31.67;12.55;;;;;;;;;;5074806;28;20325;-68
2022/03/04 14:40:52;;;;;;;38.08;14.35;;;;;;;;;;5075915;28;20024;-69
2022/03/04 14:43:23;;;;;;;39.33;16.10;;;;;;;;;;5076332;28;20024;-67
2022/03/04 14:45:51;;;;;;;61.20;23.60;;;;;;;;;;5074957;28;20020;-67
2022/03/04 14:48:18;;;;;;;47.95;18.25;;;;;;;;;;5076042;28;20032;-67
2022/03/04 14:50:49;;;;;;;59.38;29.55;;;;;;;;;;5074881;28;20036;-68
2022/03/04 14:53:17;;;;;;;44.70;20.40;;;;;;;;;;5076048;28;20029;-69
2022/03/04 14:55:44;;;;;;;48.95;21.67;;;;;;;;;;5075938;28;20410;-69
2022/03/04 14:58:11;;;;;;;51.88;22.83;;;;;;;;;;5075606;28;20060;-68
2022/03/04 15:00:37;;;;;;;46.67;20.38;;;;;;;;;;5074835;28;20016;-68
2022/03/04 15:03:05;;;;;;;42.17;19.65;;;;;;;;;;5074728;28;20025;-68
2022/03/04 15:05:32;;;;;;;45.55;23.20;;;;;;;;;;5075873;28;20055;-69
2022/03/04 15:08:01;;;;;;;55.35;24.38;;;;;;;;;;5074648;28;20040;-68
2022/03/04 15:10:28;;;;;;;56.15;26.42;;;;;;;;;;5075818;28;20017;-68
2022/03/04 15:12:56;;;;;;;46.25;20.77;;;;;;;;;;5074732;28;20025;-67
2022/03/04 15:15:23;;;;;;;52.45;19.58;;;;;;;;;;5075757;28;20067;-68
2022/03/04 15:17:51;;;;;;;32.90;15.55;;;;;;;;;;5074552;28;20031;-68
2022/03/04 15:20:18;;;;;;;35.00;14.27;;;;;;;;;;5074644;28;20111;-69
2022/03/04 15:22:46;;;;;;;49.92;17.10;;;;;;;;;;5075750;28;20321;-70
2022/03/04 15:25:14;;;;;;;42.40;16.67;;;;;;;;;;5074554;28;20025;-68
2022/03/04 15:27:43;;;;;;;47.47;16.88;;;;;;;;;;5075598;28;20021;-69
2022/03/04 15:30:10;;;;;;;140.30;59.85;;;;;;;;;;5075524;28;20024;-69
2022/03/04 15:32:40;;;;;;;258.25;98.53;;;;;;;;;;5074357;28;20024;-67
2022/03/04 15:35:08;;;;;;;133.02;61.67;;;;;;;;;;5075550;28;20020;-70
2022/03/04 15:37:36;;;;;;;135.55;59.75;;;;;;;;;;5075467;28;20070;-70
2022/03/04 15:40:10;;;;;;;366.08;123.10;;;;;;;;;;5074328;28;20333;-70
2022/03/04 15:42:38;;;;;;;373.35;133.75;;;;;;;;;;5075551;28;20318;-71
2022/03/04 15:45:06;;;;;;;80.90;31.85;;;;;;;;;;5075325;28;20029;-71
2022/03/04 15:47:33;;;;;;;366.88;130.45;;;;;;;;;;5079112;28;20516;-68
2022/03/04 15:50:01;;;;;;;253.55;91.65;;;;;;;;;;5078065;28;20436;-69
2022/03/04 15:52:29;;;;;;;186.82;69.07;;;;;;;;;;5079102;28;20812;-69
2022/03/04 15:54:57;;;;;;;120.10;53.03;;;;;;;;;;5079126;28;20099;-69
2022/03/04 15:57:25;;;;;;;69.32;32.13;;;;;;;;;;5078962;28;20024;-69
2022/03/04 15:59:53;;;;;;;60.90;26.23;;;;;;;;;;5077504;28;20056;-69
2022/03/04 16:02:20;;;;;;;59.08;25.98;;;;;;;;;;5077760;28;20021;-68
2022/03/04 16:04:48;;;;;;;60.90;26.05;;;;;;;;;;5079076;28;20409;-69
2022/03/04 16:07:17;;;;;;;64.53;26.40;;;;;;;;;;5078962;28;20019;-71
2022/03/04 16:09:45;;;;;;;60.30;28.20;;;;;;;;;;5078889;28;20025;-69
2022/03/04 16:12:13;;;;;;;89.63;38.38;;;;;;;;;;5078731;28;20028;-69
2022/03/04 16:14:41;;;;;;;82.93;37.00;;;;;;;;;;5078631;28;20028;-68
2022/03/04 16:17:11;;;;;;;95.05;42.92;;;;;;;;;;5078731;28;20025;-69
2022/03/04 16:19:39;;;;;;;105.88;46.00;;;;;;;;;;5078383;28;20025;-68
2022/03/04 16:22:07;;;;;;;129.65;52.22;;;;;;;;;;5077168;28;20024;-68
2022/03/04 16:24:34;;;;;;;143.75;55.63;;;;;;;;;;5078544;28;20024;-68
2022/03/04 16:27:05;;;;;;;151.15;57.95;;;;;;;;;;5077386;28;20115;-67
2022/03/04 16:29:33;;;;;;;162.57;62.35;;;;;;;;;;5078333;28;20032;-68
2022/03/04 16:32:01;;;;;;;171.25;68.40;;;;;;;;;;5078191;28;20028;-67
2022/03/04 16:34:30;;;;;;;174.73;72.47;;;;;;;;;;5078535;28;20069;-67
2022/03/04 16:36:57;;;;;;;196.23;77.60;;;;;;;;;;5078465;28;20104;-68
2022/03/04 16:39:27;;;;;;;194.32;75.93;;;;;;;;;;5078169;28;20110;-69
2022/03/04 16:41:57;;;;;;;212.57;78.53;;;;;;;;;;5078131;28;20017;-67
2022/03/04 16:44:25;;;;;;;185.60;73.90;;;;;;;;;;5077838;28;20091;-68
2022/03/04 16:46:52;;;;;;;185.77;71.07;;;;;;;;;;5077547;28;20026;-68
2022/03/04 16:49:19;;;;;;;153.55;68.28;;;;;;;;;;5076944;28;20024;-67
2022/03/04 16:51:47;;;;;;;180.02;72.10;;;;;;;;;;5078240;28;20031;-70
2022/03/04 16:54:16;;;;;;;173.55;73.00;;;;;;;;;;5077964;28;20021;-67
2022/03/04 16:56:43;;;;;;;205.05;82.43;;;;;;;;;;5077920;28;20023;-67
2022/03/04 16:59:09;;;;;;;200.48;87.20;;;;;;;;;;5077676;28;20048;-67
2022/03/04 17:01:36;;;;;;;182.93;79.57;;;;;;;;;;5076565;28;20021;-69
2022/03/04 17:04:04;;;;;;;165.95;73.90;;;;;;;;;;5077848;28;20025;-68
2022/03/04 17:06:31;;;;;;;159.18;68.38;;;;;;;;;;5077809;28;20020;-68
2022/03/04 17:08:59;;;;;;;154.90;58.85;;;;;;;;;;5076525;28;20032;-70
2022/03/04 17:11:26;;;;;;;130.77;57.05;;;;;;;;;;5077773;28;20341;-69
2022/03/04 17:13:54;;;;;;;101.25;44.55;;;;;;;;;;5076511;28;20421;-68
2022/03/04 17:16:21;;;;;;;73.18;34.25;;;;;;;;;;5077605;28;20032;-67
2022/03/04 17:18:50;;;;;;;84.70;33.03;;;;;;;;;;5077734;28;20090;-68
2022/03/04 17:21:18;;;;;;;68.20;27.50;;;;;;;;;;5076252;28;20318;-68
2022/03/04 17:23:45;;;;;;;61.35;26.58;;;;;;;;;;5077232;28;20318;-68
2022/03/04 17:26:12;;;;;;;79.45;32.95;;;;;;;;;;5076157;28;20044;-69
2022/03/04 17:28:40;;;;;;;77.47;32.92;;;;;;;;;;5077278;28;20025;-66
2022/03/04 17:31:08;;;;;;;76.65;33.88;;;;;;;;;;5077184;28;20381;-68
2022/03/04 17:33:36;;;;;;;73.40;33.85;;;;;;;;;;5077344;28;20106;-69
2022/03/04 17:36:04;;;;;;;73.78;35.45;;;;;;;;;;5076115;28;20024;-67
2022/03/04 17:38:31;;;;;;;89.00;37.90;;;;;;;;;;5076035;28;20157;-69
2022/03/04 17:40:59;;;;;;;87.57;38.03;;;;;;;;;;5077082;28;20047;-68
2022/03/04 17:43:26;;;;;;;70.38;32.53;;;;;;;;;;5076810;28;20096;-69
2022/03/04 17:45:54;;;;;;;67.18;28.85;;;;;;;;;;5076858;28;20016;-69
2022/03/04 17:48:24;;;;;;;64.57;23.83;;;;;;;;;;5076987;28;20031;-69
2022/03/04 17:50:51;;;;;;;45.70;19.90;;;;;;;;;;5076988;28;20444;-71
2022/03/04 17:53:19;;;;;;;45.63;19.60;;;;;;;;;;5076869;28;20099;-70
2022/03/04 17:55:47;;;;;;;48.15;21.45;;;;;;;;;;5075781;28;20024;-69
2022/03/04 17:58:13;;;;;;;50.25;20.42;;;;;;;;;;5077560;28;20075;-70
2022/03/04 18:00:39;;;;;;;51.95;22.52;;;;;;;;;;5076733;28;20039;-69
2022/03/04 18:03:07;;;;;;;72.88;31.98;;;;;;;;;;5076712;28;20021;-68
2022/03/04 18:05:34;;;;;;;56.83;23.83;;;;;;;;;;5075571;28;20021;-69
2022/03/04 18:08:02;;;;;;;30.60;14.10;;;;;;;;;;5076064;28;20021;-68
2022/03/04 18:10:29;;;;;;;34.20;12.82;;;;;;;;;;5076185;28;20046;-67
2022/03/04 18:12:58;;;;;;;26.98;11.15;;;;;;;;;;5076544;28;20021;-68
2022/03/04 18:15:25;;;;;;;24.20;10.00;;;;;;;;;;5076458;28;20021;-66
2022/03/04 18:17:53;;;;;;;26.80;9.70;;;;;;;;;;5075323;28;20025;-67
2022/03/04 18:20:21;;;;;;;24.08;10.13;;;;;;;;;;5076386;28;20101;-67
2022/03/04 18:22:48;;;;;;;21.08;9.50;;;;;;;;;;5076471;28;20021;-68
2022/03/04 18:25:16;;;;;;;32.85;11.85;;;;;;;;;;5076427;28;20031;-68
2022/03/04 18:27:44;;;;;;;32.55;12.77;;;;;;;;;;5076707;28;20025;-68
2022/03/04 18:30:11;;;;;;;24.05;10.43;;;;;;;;;;5076206;28;20029;-68
2022/03/04 18:32:39;;;;;;;32.67;14.38;;;;;;;;;;5076600;28;20421;-69
2022/03/04 18:35:06;;;;;;;45.45;18.88;;;;;;;;;;5075106;28;20064;-67
2022/03/04 18:37:34;;;;;;;41.08;18.75;;;;;;;;;;5076433;28;20417;-68
2022/03/04 18:40:20;;;;;;;47.10;19.58;;;;;;;;;;5076217;28;20359;-67
2022/03/04 18:42:49;;;;;;;41.47;19.42;;;;;;;;;;5076423;28;20020;-68
2022/03/04 18:48:04;;;;;;;33.60;15.45;;;;;;;;;;5076797;28;20321;-67
2022/03/04 18:50:32;;;;;;;29.25;12.18;;;;;;;;;;5075183;28;20406;-68
2022/03/04 18:52:59;;;;;;;21.90;10.82;;;;;;;;;;5076385;28;20020;-67
2022/03/04 18:55:27;;;;;;;27.38;10.90;;;;;;;;;;5076355;28;20021;-67
2022/03/04 18:57:57;;;;;;;28.20;11.35;;;;;;;;;;5075469;28;20040;-68
2022/03/04 19:00:24;;;;;;;23.63;10.85;;;;;;;;;;5075942;28;20021;-67
2022/03/04 19:02:54;;;;;;;32.80;14.52;;;;;;;;;;5074765;28;20020;-68
2022/03/04 19:05:23;;;;;;;29.35;12.38;;;;;;;;;;5075866;28;20092;-68
2022/03/04 19:07:51;;;;;;;34.28;13.48;;;;;;;;;;5074756;28;20032;-68
2022/03/04 19:10:18;;;;;;;28.83;12.93;;;;;;;;;;5075802;28;20021;-68
2022/03/04 19:12:47;;;;;;;25.60;11.23;;;;;;;;;;5074758;28;20090;-67
2022/03/04 19:15:19;;;;;;;26.17;10.45;;;;;;;;;;5075813;28;20029;-67
2022/03/04 19:17:47;;;;;;;24.55;10.77;;;;;;;;;;5075734;28;20100;-67
2022/03/04 19:20:19;;;;;;;28.05;12.55;;;;;;;;;;5075733;28;20031;-67
2022/03/04 19:22:47;;;;;;;30.48;11.93;;;;;;;;;;5079837;28;20035;-66
2022/03/04 19:25:15;;;;;;;34.17;12.52;;;;;;;;;;5078703;28;20020;-67
2022/03/04 19:27:43;;;;;;;28.10;12.15;;;;;;;;;;5078466;28;20032;-67
2022/03/04 19:30:12;;;;;;;26.90;10.82;;;;;;;;;;5079589;28;20024;-67
2022/03/04 19:32:39;;;;;;;38.47;12.10;;;;;;;;;;5079441;28;20437;-67
2022/03/04 19:35:08;;;;;;;31.98;11.20;;;;;;;;;;5078483;28;20036;-67
2022/03/04 19:37:36;;;;;;;29.92;11.25;;;;;;;;;;5078447;28;20029;-67
2022/03/04 19:40:04;;;;;;;28.55;11.05;;;;;;;;;;5079283;28;20048;-67
2022/03/04 19:42:31;;;;;;;28.00;10.35;;;;;;;;;;5079308;28;20070;-66
2022/03/04 19:44:59;;;;;;;24.08;8.35;;;;;;;;;;5079384;28;20021;-67
2022/03/04 19:47:27;;;;;;;25.95;8.35;;;;;;;;;;5079352;28;20025;-66
2022/03/04 19:49:55;;;;;;;15.57;7.30;;;;;;;;;;5079290;28;20031;-66
2022/03/04 19:52:22;;;;;;;19.77;7.40;;;;;;;;;;5078142;28;20329;-66
2022/03/04 19:54:50;;;;;;;15.05;6.55;;;;;;;;;;5079171;28;20028;-65
2022/03/04 19:57:18;;;;;;;13.93;5.43;;;;;;;;;;5077918;28;20119;-66
2022/03/04 19:59:46;;;;;;;16.23;6.50;;;;;;;;;;5078849;28;20056;-67
2022/03/04 20:02:13;;;;;;;17.83;6.53;;;;;;;;;;5078865;28;20074;-67
2022/03/04 20:04:41;;;;;;;25.38;6.55;;;;;;;;;;5079006;28;20013;-66
2022/03/04 20:07:09;;;;;;;20.65;5.75;;;;;;;;;;5078989;28;20021;-67
2022/03/04 20:10:00;;;;;;;14.35;5.50;;;;;;;;;;5078932;28;20058;-67
2022/03/04 20:12:28;;;;;;;17.13;5.85;;;;;;;;;;5057001;28;20048;-67
2022/03/04 20:14:56;;;;;;;12.02;5.30;;;;;;;;;;5056979;28;20041;-66
2022/03/04 20:17:24;;;;;;;11.70;5.60;;;;;;;;;;5040179;28;20047;-66
2022/03/04 20:19:51;;;;;;;11.60;4.40;;;;;;;;;;5056808;28;20037;-66
2022/03/04 20:22:22;;;;;;;12.30;4.88;;;;;;;;;;5056920;28;20090;-66
2022/03/04 20:24:49;;;;;;;13.85;5.43;;;;;;;;;;5056756;28;20021;-67
2022/03/04 20:27:17;;;;;;;14.40;5.15;;;;;;;;;;5056659;28;20032;-67
2022/03/04 20:29:45;;;;;;;14.43;5.07;;;;;;;;;;5039910;28;20047;-67
2022/03/04 20:32:12;;;;;;;14.95;4.22;;;;;;;;;;5056123;28;20083;-67
2022/03/04 20:34:40;;;;;;;14.63;4.53;;;;;;;;;;5056635;28;20037;-67
2022/03/04 20:37:08;;;;;;;24.85;4.78;;;;;;;;;;5056597;28;20033;-67
2022/03/04 20:39:35;;;;;;;14.48;4.25;;;;;;;;;;5056470;28;20033;-66
2022/03/04 20:42:03;;;;;;;19.80;4.75;;;;;;;;;;5039704;28;20403;-67
2022/03/04 20:44:33;;;;;;;18.02;4.43;;;;;;;;;;5039589;28;20021;-67
2022/03/04 20:47:01;;;;;;;23.05;5.07;;;;;;;;;;5056335;28;20310;-67
2022/03/04 20:49:28;;;;;;;14.68;4.70;;;;;;;;;;5039519;28;20124;-67
2022/03/04 20:51:56;;;;;;;9.20;4.13;;;;;;;;;;5056306;28;20191;-67
2022/03/04 20:54:23;;;;;;;10.40;3.90;;;;;;;;;;5056234;28;20452;-67
2022/03/04 20:56:51;;;;;;;12.20;3.95;;;;;;;;;;5072632;28;20492;-67
2022/03/04 20:59:17;;;;;;;9.82;4.00;;;;;;;;;;5077815;28;20048;-66
2022/03/04 21:01:43;;;;;;;8.27;3.50;;;;;;;;;;5076985;28;20031;-66
2022/03/04 21:04:12;;;;;;;10.27;3.38;;;;;;;;;;5077935;28;20017;-67
2022/03/04 21:06:40;;;;;;;14.45;3.28;;;;;;;;;;5077899;28;20025;-66
2022/03/04 21:09:07;;;;;;;16.00;3.50;;;;;;;;;;5077836;28;20036;-67
2022/03/04 21:11:36;;;;;;;11.30;3.40;;;;;;;;;;5077891;28;20329;-67
2022/03/04 21:14:04;;;;;;;8.57;2.90;;;;;;;;;;5077721;28;20017;-67
2022/03/04 21:16:31;;;;;;;12.13;3.22;;;;;;;;;;5077652;28;20024;-67
2022/03/04 21:18:58;;;;;;;10.88;3.20;;;;;;;;;;5077627;28;20024;-67
2022/03/04 21:21:26;;;;;;;14.90;2.78;;;;;;;;;;5076525;28;20024;-67
2022/03/04 21:23:54;;;;;;;7.25;2.42;;;;;;;;;;5077543;28;20074;-67
2022/03/04 21:26:22;;;;;;;13.90;3.10;;;;;;;;;;5076328;28;20021;-67
2022/03/04 21:28:49;;;;;;;10.60;2.65;;;;;;;;;;5077541;28;20361;-67
2022/03/04 21:31:17;;;;;;;9.93;2.70;;;;;;;;;;5077418;28;20032;-68
2022/03/04 21:33:44;;;;;;;12.25;2.65;;;;;;;;;;5077352;28;20055;-67
2022/03/04 21:36:12;;;;;;;12.80;2.67;;;;;;;;;;5077268;28;20025;-67
2022/03/04 21:38:40;;;;;;;11.25;2.60;;;;;;;;;;5076054;28;20060;-65
2022/03/04 21:41:07;;;;;;;10.90;2.72;;;;;;;;;;5076108;28;20017;-67
2022/03/04 21:43:35;;;;;;;7.85;2.38;;;;;;;;;;5075277;28;20435;-67
2022/03/04 21:46:03;;;;;;;11.15;2.50;;;;;;;;;;5077075;28;20428;-66
2022/03/04 21:48:30;;;;;;;9.60;2.33;;;;;;;;;;5077020;28;20028;-67
2022/03/04 21:50:58;;;;;;;11.40;2.15;;;;;;;;;;5077041;28;20021;-66
2022/03/04 21:53:26;;;;;;;9.45;2.55;;;;;;;;;;5077001;28;20028;-67
2022/03/04 21:55:53;;;;;;;10.90;1.95;;;;;;;;;;5075746;28;20089;-66
2022/03/04 21:58:20;;;;;;;8.90;2.13;;;;;;;;;;5076586;28;20314;-67
2022/03/04 22:00:46;;;;;;;12.73;2.30;;;;;;;;;;5075760;28;20035;-66
2022/03/04 22:03:13;;;;;;;9.00;2.60;;;;;;;;;;5075739;28;20027;-67
2022/03/04 22:05:41;;;;;;;12.63;2.53;;;;;;;;;;5076689;28;20025;-67
2022/03/04 22:08:08;;;;;;;8.93;2.05;;;;;;;;;;5075652;28;20025;-67
2022/03/04 22:10:36;;;;;;;12.50;2.67;;;;;;;;;;5076698;28;20091;-67
2022/03/04 22:13:04;;;;;;;7.13;2.28;;;;;;;;;;5076631;28;20023;-67
2022/03/04 22:15:31;;;;;;;15.70;2.65;;;;;;;;;;5076527;28;20021;-67
2022/03/04 22:17:59;;;;;;;9.27;2.85;;;;;;;;;;5076550;28;20020;-67
2022/03/04 22:20:27;;;;;;;8.68;2.75;;;;;;;;;;5076556;28;20036;-67
2022/03/04 22:22:54;;;;;;;9.18;3.40;;;;;;;;;;5076479;28;20027;-67
2022/03/04 22:25:22;;;;;;;8.38;2.55;;;;;;;;;;5076310;28;20025;-67
2022/03/04 22:27:50;;;;;;;9.65;2.63;;;;;;;;;;5076371;28;20090;-66
2022/03/04 22:30:17;;;;;;;12.70;2.60;;;;;;;;;;5076379;28;20052;-67
2022/03/04 22:32:45;;;;;;;9.70;2.83;;;;;;;;;;5076471;28;20020;-67
2022/03/04 22:35:13;;;;;;;10.43;2.40;;;;;;;;;;5075226;28;20017;-67
2022/03/04 22:37:40;;;;;;;10.27;2.33;;;;;;;;;;5076155;28;20029;-66
2022/03/04 22:40:08;;;;;;;8.23;2.35;;;;;;;;;;5075046;28;20064;-67
2022/03/04 22:42:35;;;;;;;9.30;1.83;;;;;;;;;;5076241;28;20020;-66
2022/03/04 22:45:04;;;;;;;5.75;2.08;;;;;;;;;;5076137;28;20016;-66
2022/03/04 22:47:31;;;;;;;5.95;1.58;;;;;;;;;;5075063;28;20490;-66
2022/03/04 22:49:59;;;;;;;6.50;2.05;;;;;;;;;;5076181;28;20067;-66
2022/03/04 22:52:27;;;;;;;6.57;1.80;;;;;;;;;;5076142;28;20421;-66
2022/03/04 22:54:54;;;;;;;9.00;1.92;;;;;;;;;;5075731;28;20029;-66
2022/03/04 22:57:22;;;;;;;9.05;2.00;;;;;;;;;;5074892;28;20028;-65
2022/03/04 22:59:49;;;;;;;9.40;1.90;;;;;;;;;;5075743;28;20049;-65
2022/03/04 23:08:08;;;;;;;5.10;1.75;;;;;;;;;;5076145;28;20112;-66
2022/03/04 23:13:23;;;;;;;6.45;1.42;;;;;;;;;;5075924;28;20509;-66
2022/03/04 23:15:53;;;;;;;5.97;1.40;;;;;;;;;;5075926;28;20056;-66
2022/03/04 23:18:21;;;;;;;6.90;1.27;;;;;;;;;;5075725;28;20021;-66
2022/03/04 23:20:48;;;;;;;6.85;1.23;;;;;;;;;;5075845;28;20352;-66
2022/03/04 23:23:16;;;;;;;4.97;1.15;;;;;;;;;;5075846;28;20017;-66
2022/03/04 23:25:44;;;;;;;3.85;1.17;;;;;;;;;;5075690;28;20028;-67
2022/03/04 23:28:11;;;;;;;5.78;1.55;;;;;;;;;;5074618;28;20372;-66
2022/03/04 23:30:39;;;;;;;8.75;1.25;;;;;;;;;;5074611;28;20021;-66
2022/03/04 23:33:06;;;;;;;7.78;1.10;;;;;;;;;;5075743;28;20367;-66
2022/03/04 23:35:34;;;;;;;6.93;1.23;;;;;;;;;;5075649;28;20071;-65
2022/03/04 23:38:01;;;;;;;6.60;1.10;;;;;;;;;;5075608;28;20020;-66
2022/03/04 23:40:29;;;;;;;6.13;1.00;;;;;;;;;;5075563;28;20082;-66
2022/03/04 23:42:56;;;;;;;4.97;1.30;;;;;;;;;;5075602;28;20048;-67
2022/03/04 23:45:24;;;;;;;4.63;1.08;;;;;;;;;;5075487;28;20016;-67
2022/03/04 23:47:52;;;;;;;5.35;1.30;;;;;;;;;;5075489;28;20437;-67
2022/03/04 23:50:19;;;;;;;6.63;1.30;;;;;;;;;;5075485;28;20028;-66
2022/03/04 23:52:47;;;;;;;8.93;1.40;;;;;;;;;;5075435;28;20024;-67
2022/03/04 23:55:15;;;;;;;9.95;1.63;;;;;;;;;;5074219;28;20020;-66
2022/03/04 23:57:41;;;;;;;4.85;1.30;;;;;;;;;;5074785;28;20033;-66
